createdAt,value
2023-03-14T00:01:54.837Z,8.59
2023-03-14T00:04:39.777Z,8.44
2023-03-14T00:07:24.679Z,8.67
2023-03-14T00:10:09.607Z,8.65
2023-03-14T00:12:54.578Z,8.32
2023-03-14T00:15:39.537Z,8.29
2023-03-14T00:18:24.285Z,8.03
2023-03-14T00:21:09.090Z,8.51
2023-03-14T00:23:54.063Z,8.58
2023-03-14T00:26:38.925Z,8.38
2023-03-14T00:29:23.747Z,8.49
2023-03-14T00:32:08.547Z,8.51
2023-03-14T00:34:53.400Z,8.50
2023-03-14T00:37:38.264Z,8.59
2023-03-14T00:40:23.069Z,7.84
2023-03-14T00:43:07.785Z,8.13
2023-03-14T00:45:52.742Z,7.90
2023-03-14T00:48:37.536Z,8.43
2023-03-14T00:51:22.368Z,8.48
2023-03-14T00:54:07.282Z,8.51
2023-03-14T00:56:52.135Z,7.76
2023-03-14T00:59:37.250Z,8.17
2023-03-14T01:02:22.027Z,7.90
2023-03-14T01:05:06.952Z,8.32
2023-03-14T01:07:51.762Z,8.00
2023-03-14T01:10:36.613Z,7.60
2023-03-14T01:13:21.525Z,7.59
2023-03-14T01:16:06.389Z,8.02
2023-03-14T01:18:51.880Z,7.76
2023-03-14T01:21:36.645Z,7.84
2023-03-14T01:24:21.555Z,7.97
2023-03-14T01:27:06.413Z,8.03
2023-03-14T01:29:51.382Z,8.29
2023-03-14T01:32:36.189Z,8.17
2023-03-14T01:35:21.049Z,8.31
2023-03-14T01:38:05.914Z,8.09
2023-03-14T01:40:50.892Z,8.03
2023-03-14T01:43:35.804Z,7.91
2023-03-14T01:46:20.612Z,8.29
2023-03-14T01:49:05.638Z,8.48
2023-03-14T01:51:50.501Z,8.34
2023-03-14T01:54:35.544Z,8.39
2023-03-14T01:57:20.365Z,8.41
2023-03-14T02:00:05.293Z,8.65
2023-03-14T02:02:50.186Z,8.59
2023-03-14T02:05:35.127Z,8.16
2023-03-14T02:08:20.039Z,7.99
2023-03-14T02:11:04.837Z,8.45
2023-03-14T02:13:49.766Z,8.38
2023-03-14T02:16:34.556Z,8.31
2023-03-14T02:19:19.360Z,8.23
2023-03-14T02:22:04.213Z,7.75
2023-03-14T02:24:49.082Z,7.82
2023-03-14T02:27:33.827Z,7.84
2023-03-14T02:30:18.679Z,8.13
2023-03-14T02:33:03.717Z,7.95
2023-03-14T02:35:48.518Z,8.18
2023-03-14T02:38:33.584Z,8.24
2023-03-14T02:41:18.490Z,8.37
2023-03-14T02:44:03.216Z,7.89
2023-03-14T02:46:48.385Z,7.50
2023-03-14T02:49:33.316Z,7.61
2023-03-14T02:52:18.240Z,7.64
2023-03-14T02:55:03.057Z,7.47
2023-03-14T02:57:48.111Z,7.36
2023-03-14T03:00:32.913Z,7.12
2023-03-14T03:03:17.786Z,7.80
2023-03-14T03:06:02.637Z,8.16
2023-03-14T03:08:47.663Z,8.12
2023-03-14T03:11:32.465Z,7.97
2023-03-14T03:14:17.361Z,7.37
2023-03-14T03:17:02.313Z,8.00
2023-03-14T03:19:47.138Z,8.20
2023-03-14T03:22:32.113Z,8.13
2023-03-14T03:25:16.975Z,7.70
2023-03-14T03:28:01.934Z,7.51
2023-03-14T03:30:46.889Z,7.12
2023-03-14T03:33:32.368Z,7.00
2023-03-14T03:36:17.273Z,6.74
2023-03-14T03:39:02.256Z,7.08
2023-03-14T03:41:47.266Z,7.61
2023-03-14T03:44:32.106Z,7.43
2023-03-14T03:47:17.129Z,7.83
2023-03-14T03:50:02.029Z,6.51
2023-03-14T03:52:47.095Z,6.75
2023-03-14T03:55:31.810Z,6.78
2023-03-14T03:58:16.681Z,6.97
2023-03-14T04:01:01.475Z,6.89
2023-03-14T04:03:46.863Z,6.85
2023-03-14T04:06:31.781Z,7.48
2023-03-14T04:09:16.656Z,7.20
2023-03-14T04:12:01.596Z,7.11
2023-03-14T04:14:46.401Z,7.21
2023-03-14T04:17:31.376Z,7.24
2023-03-14T04:20:16.233Z,7.93
2023-03-14T04:23:01.021Z,8.22
2023-03-14T04:25:45.756Z,8.42
2023-03-14T04:28:30.721Z,7.93
2023-03-14T04:31:15.870Z,7.64
2023-03-14T04:34:00.666Z,7.38
2023-03-14T04:36:45.602Z,7.74
2023-03-14T04:39:30.644Z,8.10
2023-03-14T04:42:15.535Z,8.35
2023-03-14T04:45:00.394Z,7.94
2023-03-14T04:47:45.245Z,7.17
2023-03-14T04:50:30.032Z,6.77
2023-03-14T04:53:14.907Z,6.95
2023-03-14T04:55:59.615Z,6.84
2023-03-14T04:58:44.503Z,6.74
2023-03-14T05:01:29.486Z,6.60
2023-03-14T05:04:14.374Z,6.80
2023-03-14T05:06:59.315Z,6.25
2023-03-14T05:09:44.090Z,6.76
2023-03-14T05:12:29.008Z,6.77
2023-03-14T05:15:13.703Z,6.42
2023-03-14T05:17:58.520Z,6.10
2023-03-14T05:20:43.352Z,6.49
2023-03-14T05:23:28.168Z,6.08
2023-03-14T05:26:13.156Z,6.62
2023-03-14T05:28:57.967Z,7.13
2023-03-14T05:31:43.041Z,6.88
2023-03-14T05:34:27.854Z,6.94
2023-03-14T05:37:12.667Z,6.76
2023-03-14T05:39:57.545Z,7.04
2023-03-14T05:42:42.434Z,6.79
2023-03-14T05:45:27.422Z,6.41
2023-03-14T05:48:12.159Z,6.63
2023-03-14T05:50:57.004Z,6.57
2023-03-14T05:53:41.796Z,6.64
2023-03-14T05:56:26.735Z,6.60
2023-03-14T05:59:11.631Z,6.61
2023-03-14T06:01:56.708Z,6.06
2023-03-14T06:04:41.505Z,6.20
2023-03-14T06:07:26.375Z,6.07
2023-03-14T06:10:12.328Z,6.17
2023-03-14T06:12:57.395Z,6.15
2023-03-14T06:15:42.349Z,6.22
2023-03-14T06:18:27.206Z,6.51
2023-03-14T06:21:12.097Z,6.66
2023-03-14T06:23:56.826Z,6.66
2023-03-14T06:26:41.830Z,6.98
2023-03-14T06:29:26.732Z,6.57
2023-03-14T06:32:11.849Z,6.77
2023-03-14T06:34:56.701Z,6.71
2023-03-14T06:37:41.617Z,6.35
2023-03-14T06:40:26.515Z,6.09
2023-03-14T06:43:12.115Z,6.48
2023-03-14T06:45:57.291Z,6.82
2023-03-14T06:48:42.067Z,6.69
2023-03-14T06:51:26.913Z,6.51
2023-03-14T06:54:11.717Z,6.88
2023-03-14T06:56:56.609Z,7.05
2023-03-14T06:59:41.497Z,6.86
2023-03-14T07:02:39.805Z,6.53
2023-03-14T07:05:26.670Z,6.36
2023-03-14T07:08:11.407Z,6.96
2023-03-14T07:10:56.423Z,6.59
2023-03-14T07:13:41.305Z,6.62
2023-03-14T07:16:26.165Z,6.45
2023-03-14T07:19:11.030Z,6.35
2023-03-14T07:21:55.974Z,6.06
2023-03-14T07:24:40.860Z,6.52
2023-03-14T07:27:25.762Z,6.50
2023-03-14T07:30:10.652Z,6.42
2023-03-14T07:32:55.594Z,6.52
2023-03-14T07:35:40.537Z,6.35
2023-03-14T07:38:25.362Z,6.01
2023-03-14T07:41:10.276Z,6.17
2023-03-14T07:43:55.032Z,6.16
2023-03-14T07:46:39.997Z,6.40
2023-03-14T07:49:24.890Z,6.19
2023-03-14T07:52:09.851Z,6.42
2023-03-14T07:54:54.744Z,6.59
2023-03-14T07:57:39.680Z,6.13
2023-03-14T08:00:24.673Z,6.80
2023-03-14T08:03:09.430Z,6.54
2023-03-14T08:05:54.366Z,6.29
2023-03-14T08:08:39.285Z,5.94
2023-03-14T08:11:24.238Z,6.28
2023-03-14T08:14:08.917Z,6.24
2023-03-14T08:16:53.678Z,5.88
2023-03-14T08:19:38.580Z,6.14
2023-03-14T08:22:23.394Z,6.15
2023-03-14T08:25:08.909Z,5.99
2023-03-14T08:27:54.312Z,5.77
2023-03-14T08:30:39.287Z,5.89
2023-03-14T08:33:24.045Z,6.42
2023-03-14T08:36:09.115Z,6.14
2023-03-14T08:38:53.959Z,6.46
2023-03-14T08:41:39.242Z,5.96
2023-03-14T08:44:24.351Z,5.96
2023-03-14T08:47:09.373Z,6.23
2023-03-14T08:49:54.259Z,5.56
2023-03-14T08:52:39.137Z,5.40
2023-03-14T08:55:24.576Z,5.39
2023-03-14T08:58:09.397Z,5.60
2023-03-14T09:00:54.502Z,5.84
2023-03-14T09:03:39.436Z,5.46
2023-03-14T09:06:24.242Z,5.88
2023-03-14T09:09:09.282Z,5.58
2023-03-14T09:11:54.022Z,5.73
2023-03-14T09:14:38.885Z,5.36
2023-03-14T09:17:23.673Z,5.47
2023-03-14T09:20:08.610Z,5.46
2023-03-14T09:22:53.524Z,5.62
2023-03-14T09:25:38.371Z,5.93
2023-03-14T09:28:25.716Z,5.96
2023-03-14T09:31:10.734Z,6.09
2023-03-14T09:33:55.630Z,5.95
2023-03-14T09:36:40.457Z,6.26
2023-03-14T09:39:25.410Z,6.48
2023-03-14T09:42:10.185Z,6.51
2023-03-14T09:44:55.146Z,6.30
2023-03-14T09:47:49.305Z,6.77
2023-03-14T09:50:37.600Z,6.42
2023-03-14T09:53:22.679Z,6.59
2023-03-14T09:56:07.434Z,6.92
2023-03-14T09:58:52.658Z,6.97
2023-03-14T10:01:37.808Z,6.98
2023-03-14T10:04:22.837Z,6.63
2023-03-14T10:07:07.621Z,6.45
2023-03-14T10:09:52.497Z,5.69
2023-03-14T10:12:37.304Z,5.80
2023-03-14T10:15:22.128Z,5.35
2023-03-14T10:18:07.174Z,5.47
2023-03-14T10:20:52.062Z,5.62
2023-03-14T10:23:37.076Z,5.78
2023-03-14T10:26:21.847Z,5.68
2023-03-14T10:29:06.829Z,5.91
2023-03-14T10:34:37.647Z,5.55
2023-03-14T10:37:22.661Z,5.66
2023-03-14T10:40:07.615Z,5.61
2023-03-14T10:42:52.619Z,6.02
2023-03-14T10:45:37.498Z,6.10
2023-03-14T10:48:22.418Z,6.10
2023-03-14T10:51:07.176Z,6.22
2023-03-14T10:53:52.159Z,6.26
2023-03-14T10:56:36.959Z,6.46
2023-03-14T10:59:21.823Z,6.58
2023-03-14T11:02:06.821Z,6.28
2023-03-14T11:04:51.672Z,6.45
2023-03-14T11:07:37.095Z,6.45
2023-03-14T11:10:22.017Z,6.14
2023-03-14T11:13:06.802Z,6.58
2023-03-14T11:15:51.626Z,6.81
2023-03-14T11:18:36.539Z,6.82
2023-03-14T11:21:21.290Z,7.05
2023-03-14T11:24:06.165Z,7.12
2023-03-14T11:26:50.921Z,7.12
2023-03-14T11:29:35.853Z,7.29
2023-03-14T11:32:20.903Z,6.65
2023-03-14T11:35:05.593Z,6.14
2023-03-14T11:37:50.552Z,5.92
2023-03-14T11:40:35.385Z,5.11
2023-03-14T11:43:20.286Z,5.32
2023-03-14T11:46:05.082Z,5.24
2023-03-14T11:48:49.922Z,4.84
2023-03-14T11:51:35.152Z,4.71
2023-03-14T11:54:20.008Z,4.77
2023-03-14T11:57:04.806Z,5.64
2023-03-14T11:59:49.978Z,5.59
2023-03-14T12:02:35.149Z,6.12
2023-03-14T12:05:19.947Z,5.82
2023-03-14T12:08:04.795Z,6.38
2023-03-14T12:10:49.723Z,7.43
2023-03-14T12:13:34.595Z,7.36
2023-03-14T12:16:19.579Z,8.16
2023-03-14T12:19:04.336Z,8.52
2023-03-14T12:21:49.240Z,8.50
2023-03-14T12:24:34.107Z,8.54
2023-03-14T12:27:19.088Z,8.79
2023-03-14T12:30:04.850Z,8.31
2023-03-14T12:32:49.788Z,7.79
2023-03-14T12:35:34.656Z,7.30
2023-03-14T12:38:19.500Z,7.88
2023-03-14T12:41:04.375Z,7.99
2023-03-14T12:43:49.170Z,7.55
2023-03-14T12:46:34.026Z,7.41
2023-03-14T12:49:18.672Z,7.79
2023-03-14T12:52:03.646Z,8.61
2023-03-14T12:54:48.357Z,8.56
2023-03-14T12:57:33.298Z,10.10
2023-03-14T13:00:18.065Z,9.85
2023-03-14T13:03:02.985Z,8.08
2023-03-14T13:05:47.855Z,8.63
2023-03-14T13:08:32.686Z,9.00
2023-03-14T13:11:17.695Z,9.57
2023-03-14T13:14:02.639Z,10.63
2023-03-14T13:16:47.704Z,10.74
2023-03-14T13:19:32.388Z,11.41
2023-03-14T13:22:17.200Z,10.69
2023-03-14T13:25:01.916Z,11.10
2023-03-14T13:27:46.840Z,11.16
2023-03-14T13:30:31.646Z,11.18
2023-03-14T13:33:16.470Z,10.80
2023-03-14T13:36:01.462Z,9.77
2023-03-14T13:38:46.314Z,7.66
2023-03-14T13:41:31.222Z,8.06
2023-03-14T13:44:16.138Z,7.22
2023-03-14T13:47:00.957Z,7.81
2023-03-14T13:49:45.825Z,7.14
2023-03-14T13:52:30.714Z,9.44
2023-03-14T13:55:15.440Z,9.42
2023-03-14T13:58:00.265Z,10.36
2023-03-14T14:00:45.263Z,10.05
2023-03-14T14:03:30.146Z,9.75
2023-03-14T14:06:15.210Z,10.01
2023-03-14T14:09:00.162Z,9.63
2023-03-14T14:11:53.776Z,8.90
2023-03-14T14:14:41.594Z,9.12
2023-03-14T14:17:26.507Z,9.38
2023-03-14T14:20:11.326Z,8.39
2023-03-14T14:22:56.206Z,8.33
2023-03-14T14:25:41.158Z,7.26
2023-03-14T14:28:25.938Z,7.36
2023-03-14T14:31:10.709Z,7.17
2023-03-14T14:33:55.692Z,6.57
2023-03-14T14:36:40.617Z,7.20
2023-03-14T14:39:25.472Z,7.46
2023-03-14T14:42:10.478Z,7.94
2023-03-14T14:44:55.239Z,8.35
2023-03-14T14:47:40.168Z,8.12
2023-03-14T14:50:24.958Z,7.92
2023-03-14T14:53:09.971Z,7.33
2023-03-14T14:55:54.833Z,6.38
2023-03-14T14:58:39.702Z,6.77
2023-03-14T15:01:24.777Z,7.28
2023-03-14T15:04:09.575Z,6.81
2023-03-14T15:06:54.394Z,7.23
2023-03-14T15:09:39.349Z,6.90
2023-03-14T15:12:24.396Z,7.03
2023-03-14T15:15:09.258Z,7.20
2023-03-14T15:17:54.103Z,7.46
2023-03-14T15:20:39.229Z,7.16
2023-03-14T15:23:24.363Z,7.16
2023-03-14T15:26:09.369Z,7.66
2023-03-14T15:28:54.221Z,7.22
2023-03-14T15:31:39.183Z,7.47
2023-03-14T15:34:23.948Z,7.60
2023-03-14T15:37:08.841Z,7.97
2023-03-14T15:39:53.617Z,8.41
2023-03-14T15:42:38.550Z,7.54
2023-03-14T15:45:23.408Z,7.63
2023-03-14T15:48:08.261Z,8.22
2023-03-14T15:50:53.061Z,8.19
2023-03-14T15:53:37.902Z,7.28
2023-03-14T15:56:22.831Z,7.33
2023-03-14T15:59:07.627Z,6.90
2023-03-14T16:01:52.604Z,7.01
2023-03-14T16:04:37.415Z,6.84
2023-03-14T16:07:22.286Z,7.47
2023-03-14T16:10:07.089Z,7.48
2023-03-14T16:12:51.958Z,7.87
2023-03-14T16:15:36.840Z,7.86
2023-03-14T16:18:22.379Z,7.87
2023-03-14T16:21:07.569Z,7.18
2023-03-14T16:23:52.347Z,6.72
2023-03-14T16:26:37.313Z,7.20
2023-03-14T16:29:22.178Z,7.65
2023-03-14T16:32:07.213Z,7.71
2023-03-14T16:34:52.043Z,7.47
2023-03-14T16:37:36.850Z,7.03
2023-03-14T16:40:21.817Z,6.65
2023-03-14T16:43:21.559Z,6.72
2023-03-14T16:46:06.801Z,6.63
2023-03-14T16:48:51.655Z,6.97
2023-03-14T16:51:36.599Z,6.85
2023-03-14T16:54:21.500Z,6.98
2023-03-14T16:57:06.466Z,6.95
2023-03-14T16:59:51.206Z,6.67
2023-03-14T17:02:36.077Z,6.91
2023-03-14T17:05:22.345Z,7.13
2023-03-14T17:08:07.632Z,7.01
2023-03-14T17:10:52.497Z,6.85
2023-03-14T17:13:37.548Z,7.09
2023-03-14T17:16:24.408Z,7.06
2023-03-14T17:19:10.002Z,6.92
2023-03-14T17:22:01.670Z,6.80
2023-03-14T17:24:54.426Z,6.97
2023-03-14T17:27:39.149Z,7.39
2023-03-14T17:30:24.026Z,7.30
2023-03-14T17:33:08.976Z,6.74
2023-03-14T17:35:54.380Z,6.98
2023-03-14T17:38:39.832Z,6.78
2023-03-14T17:41:24.882Z,6.67
2023-03-14T17:44:09.805Z,6.88
2023-03-14T17:46:54.761Z,7.13
2023-03-14T17:49:39.635Z,7.44
2023-03-14T17:52:24.497Z,7.04
2023-03-14T17:55:09.372Z,7.51
2023-03-14T17:57:54.284Z,6.36
2023-03-14T18:00:39.156Z,5.96
2023-03-14T18:03:24.053Z,5.86
2023-03-14T18:06:09.151Z,5.61
2023-03-14T18:08:54.060Z,5.71
2023-03-14T18:11:38.948Z,5.89
2023-03-14T18:14:23.886Z,5.61
2023-03-14T18:17:08.814Z,5.96
2023-03-14T18:19:53.837Z,6.07
2023-03-14T18:22:38.548Z,5.80
2023-03-14T18:25:23.429Z,6.04
2023-03-14T18:28:08.272Z,6.28
2023-03-14T18:30:53.084Z,6.31
2023-03-14T18:33:38.056Z,6.50
2023-03-14T18:36:22.970Z,6.77
2023-03-14T18:39:08.053Z,6.74
2023-03-14T18:41:53.003Z,6.49
2023-03-14T18:44:37.874Z,6.28
2023-03-14T18:47:22.684Z,6.41
2023-03-14T18:50:07.725Z,6.22
2023-03-14T18:52:52.548Z,6.35
2023-03-14T18:55:37.368Z,6.44
2023-03-14T18:58:22.115Z,6.31
2023-03-14T19:01:07.226Z,6.14
2023-03-14T19:03:52.474Z,5.86
2023-03-14T19:06:37.230Z,6.05
2023-03-14T19:09:22.157Z,5.99
2023-03-14T19:12:06.954Z,5.74
2023-03-14T19:14:52.715Z,5.65
2023-03-14T19:17:38.113Z,6.19
2023-03-14T19:20:22.980Z,5.86
2023-03-14T19:23:07.957Z,6.37
2023-03-14T19:25:52.851Z,6.15
2023-03-14T19:28:37.772Z,6.19
2023-03-14T19:31:22.686Z,6.25
2023-03-14T19:34:07.594Z,6.47
2023-03-14T19:36:52.420Z,6.48
2023-03-14T19:39:37.321Z,6.59
2023-03-14T19:42:22.050Z,6.60
2023-03-14T19:45:06.975Z,6.63
2023-03-14T19:47:51.842Z,6.66
2023-03-14T19:50:36.825Z,6.70
2023-03-14T19:53:21.785Z,6.49
2023-03-14T19:56:08.486Z,6.62
2023-03-14T19:58:53.507Z,5.91
2023-03-14T20:01:38.396Z,6.17
2023-03-14T20:04:23.262Z,6.15
2023-03-14T20:07:08.083Z,6.37
2023-03-14T20:09:52.773Z,6.36
2023-03-14T20:12:37.751Z,6.28
2023-03-14T20:15:22.551Z,6.45
2023-03-14T20:18:07.513Z,6.79
2023-03-14T20:20:52.294Z,7.19
2023-03-14T20:23:36.946Z,6.80
2023-03-14T20:26:21.822Z,6.50
2023-03-14T20:29:06.544Z,6.66
2023-03-14T20:31:51.471Z,6.31
2023-03-14T20:34:36.291Z,5.94
2023-03-14T20:37:21.225Z,6.15
2023-03-14T20:40:06.231Z,6.56
2023-03-14T20:42:51.102Z,7.10
2023-03-14T20:45:35.854Z,6.98
2023-03-14T20:48:20.801Z,6.85
2023-03-14T20:51:05.704Z,7.35
2023-03-14T20:53:50.593Z,7.16
2023-03-14T20:56:35.598Z,7.38
2023-03-14T20:59:20.522Z,7.04
2023-03-14T21:02:05.397Z,7.03
2023-03-14T21:04:50.227Z,7.32
2023-03-14T21:07:35.573Z,7.38
2023-03-14T21:10:20.365Z,7.20
2023-03-14T21:13:05.195Z,6.89
2023-03-14T21:15:49.992Z,6.82
2023-03-14T21:18:34.747Z,7.11
2023-03-14T21:21:19.675Z,7.09
2023-03-14T21:24:04.554Z,6.85
2023-03-14T21:26:49.429Z,6.77
2023-03-14T21:29:34.267Z,7.08
2023-03-14T21:32:19.216Z,6.96
2023-03-14T21:35:04.131Z,6.17
2023-03-14T21:37:49.065Z,6.54
2023-03-14T21:40:33.780Z,5.98
2023-03-14T21:43:18.533Z,6.38
2023-03-14T21:46:03.517Z,6.63
2023-03-14T21:48:48.834Z,6.46
2023-03-14T21:51:33.752Z,6.85
2023-03-14T21:54:18.559Z,6.33
2023-03-14T21:57:03.475Z,6.32
2023-03-14T21:59:48.282Z,6.50
2023-03-14T22:02:33.347Z,6.91
2023-03-14T22:05:18.039Z,6.47
2023-03-14T22:08:02.902Z,6.96
2023-03-14T22:10:47.863Z,6.00
2023-03-14T22:13:32.671Z,6.01
2023-03-14T22:16:17.598Z,6.16
2023-03-14T22:19:02.328Z,6.21
2023-03-14T22:21:47.173Z,6.65
2023-03-14T22:24:31.960Z,5.50
2023-03-14T22:27:16.832Z,5.85
2023-03-14T22:30:01.569Z,6.08
2023-03-14T22:32:46.501Z,6.23
2023-03-14T22:35:31.345Z,6.01
2023-03-14T22:38:16.167Z,5.70
2023-03-14T22:41:00.999Z,5.50
2023-03-14T22:43:45.820Z,5.91
2023-03-14T22:46:30.765Z,5.16
2023-03-14T22:49:15.756Z,4.67
2023-03-14T22:52:00.736Z,4.34
2023-03-14T22:54:45.538Z,4.54
2023-03-14T22:57:30.482Z,4.62
2023-03-14T23:00:15.210Z,3.60
2023-03-14T23:03:00.085Z,4.58
2023-03-14T23:05:44.887Z,3.93
2023-03-14T23:08:29.699Z,4.26
2023-03-14T23:11:14.625Z,5.00
2023-03-14T23:13:59.531Z,4.43
2023-03-14T23:16:44.387Z,5.14
2023-03-14T23:19:29.258Z,5.38
2023-03-14T23:22:14.133Z,4.90
2023-03-14T23:24:59.088Z,5.27
2023-03-14T23:27:43.959Z,5.92
2023-03-14T23:30:28.849Z,5.60
2023-03-14T23:33:13.652Z,5.37
2023-03-14T23:35:58.611Z,5.55
2023-03-14T23:38:43.429Z,5.21
2023-03-14T23:41:28.389Z,5.02
2023-03-14T23:44:13.283Z,4.93
2023-03-14T23:46:58.086Z,5.05
2023-03-14T23:49:42.895Z,4.88
2023-03-14T23:52:27.871Z,5.48
2023-03-14T23:55:12.690Z,4.85
2023-03-14T23:57:57.571Z,5.32
